Time;durP1;ratioP1;P1;durP2;ratioP2;P2;SDS_P1;SDS_P2;PMS_P1;PMS_P2;Temp;Humidity;BMP_temperature;BMP_pressure;BME280_temperature;BME280_humidity;BME280_pressure;Samples;Min_cycle;Max_cycle;Signal;HPM_P1;HPM_P2
2021/03/08 00:00:26;;;;;;;23.22;14.85;;;;;;;2.57;67.32;99110.55;1807633;77;21494;-55
2021/03/08 00:02:55;;;;;;;22.73;14.47;;;;;;;2.56;67.32;99104.35;1787807;78;20945;-55
2021/03/08 00:09:04;;;;;;;25.27;16.15;;;;;;;2.59;67.44;99106.91;1817129;77;22816;-54
2021/03/08 00:11:33;;;;;;;21.23;14.58;;;;;;;2.52;67.50;99089.38;1793261;78;20971;-56
2021/03/08 00:14:01;;;;;;;20.65;14.55;;;;;;;2.51;67.56;99092.96;1787925;79;21433;-54
2021/03/08 00:16:29;;;;;;;22.15;15.35;;;;;;;2.51;67.62;99087.64;1787202;78;20987;-67
2021/03/08 00:18:57;;;;;;;23.22;13.72;;;;;;;2.51;67.74;99079.66;1788152;79;21725;-66
2021/03/08 00:21:25;;;;;;;24.63;14.75;;;;;;;2.50;67.77;99080.55;1784553;78;21626;-67
2021/03/08 00:23:53;;;;;;;24.20;14.47;;;;;;;2.49;67.78;99074.81;1788141;79;21651;-67
2021/03/08 00:26:21;;;;;;;21.37;14.13;;;;;;;2.49;67.86;99073.95;1786408;78;22208;-67
2021/03/08 00:28:50;;;;;;;20.45;13.58;;;;;;;2.49;67.92;99073.48;1787048;79;21003;-66
2021/03/08 00:31:18;;;;;;;23.35;14.28;;;;;;;2.49;67.96;99073.48;1786236;78;21078;-67
2021/03/08 00:33:46;;;;;;;19.45;13.05;;;;;;;2.49;67.91;99062.84;1786735;79;21102;-67
2021/03/08 00:36:14;;;;;;;22.02;13.40;;;;;;;2.49;67.95;99062.84;1787966;79;21141;-52
2021/03/08 00:38:42;;;;;;;22.82;13.03;;;;;;;2.49;67.98;99057.52;1786728;78;21198;-53
2021/03/08 00:41:10;;;;;;;22.20;14.55;;;;;;;2.48;68.08;99049.13;1786578;79;20987;-67
2021/03/08 00:43:38;;;;;;;22.50;14.10;;;;;;;2.46;68.12;99050.97;1786193;78;21122;-66
2021/03/08 00:46:06;;;;;;;22.75;15.05;;;;;;;2.46;68.25;99044.31;1786541;79;21138;-66
2021/03/08 00:48:35;;;;;;;21.97;14.55;;;;;;;2.45;68.37;99043.91;1786875;78;21593;-65
2021/03/08 00:51:04;;;;;;;20.72;14.75;;;;;;;2.44;68.41;99043.47;1786255;78;21626;-52
2021/03/08 00:53:33;;;;;;;19.30;14.35;;;;;;;2.44;68.39;99044.80;1786729;79;21590;-53
2021/03/08 00:56:01;;;;;;;22.58;14.40;;;;;;;2.45;68.43;99039.92;1787187;78;21589;-53
2021/03/08 00:58:29;;;;;;;18.70;13.53;;;;;;;2.46;68.51;99042.98;1756534;80;21142;-53
2021/03/08 01:00:57;;;;;;;19.02;12.73;;;;;;;2.43;68.65;99028.42;1786135;78;20947;-58
2021/03/08 01:03:25;;;;;;;23.98;14.80;;;;;;;2.43;68.72;99036.41;1787033;79;21210;-53
2021/03/08 01:05:54;;;;;;;22.50;14.80;;;;;;;2.43;68.76;99031.09;1788622;79;21153;-55
2021/03/08 01:08:26;;;;;;;17.90;13.70;;;;;;;2.43;68.75;99020.44;1781427;80;21126;-56
2021/03/08 01:10:55;;;;;;;19.37;12.58;;;;;;;2.43;68.84;99031.09;1776482;79;21134;-55
2021/03/08 01:13:26;;;;;;;24.15;13.65;;;;;;;2.43;68.86;99017.78;1776419;80;20976;-55
2021/03/08 01:15:54;;;;;;;20.97;13.13;;;;;;;2.42;68.91;99013.38;1777528;79;21382;-65
2021/03/08 01:18:23;;;;;;;18.48;13.45;;;;;;;2.43;69.07;99019.11;1778462;80;21146;-62
2021/03/08 01:20:52;;;;;;;17.07;12.95;;;;;;;2.41;69.11;99012.98;1776123;80;21130;-54
2021/03/08 01:23:20;;;;;;;20.20;14.55;;;;;;;2.41;69.16;99016.97;1775016;80;21605;-54
2021/03/08 01:25:48;;;;;;;20.17;13.45;;;;;;;2.40;69.26;99008.58;1777519;80;21114;-62
2021/03/08 01:28:17;;;;;;;22.02;14.13;;;;;;;2.41;69.33;99004.99;1775854;79;21153;-63
2021/03/08 01:30:45;;;;;;;21.93;14.55;;;;;;;2.41;69.41;99007.66;1777239;80;21114;-65
2021/03/08 01:33:13;;;;;;;21.45;14.58;;;;;;;2.37;69.47;99002.00;1777268;80;21544;-64
2021/03/08 01:35:41;;;;;;;20.10;13.70;;;;;;;2.38;69.57;99010.39;1777213;79;20984;-64
2021/03/08 01:38:09;;;;;;;22.05;14.83;;;;;;;2.36;69.70;99005.59;1778496;79;21612;-63
2021/03/08 01:40:39;;;;;;;21.10;14.70;;;;;;;2.35;69.68;98998.53;1714843;82;21419;-53
2021/03/08 01:43:08;;;;;;;22.82;14.25;;;;;;;2.36;69.76;99005.59;1775360;79;21023;-52
2021/03/08 01:45:36;;;;;;;21.05;14.53;;;;;;;2.35;69.78;98999.86;1776194;79;21126;-52
2021/03/08 01:48:05;;;;;;;22.90;15.10;;;;;;;2.35;69.87;98996.73;1777149;80;21030;-53
2021/03/08 01:50:38;;;;;;;20.60;14.45;;;;;;;2.34;69.90;98994.09;1777850;79;21031;-53
2021/03/08 01:53:08;;;;;;;21.73;14.65;;;;;;;2.34;69.94;99003.41;1775303;80;21383;-54
2021/03/08 01:55:37;;;;;;;20.10;14.07;;;;;;;2.30;70.02;99009.76;1777704;79;21034;-52
2021/03/08 01:58:05;;;;;;;18.90;13.53;;;;;;;2.31;70.07;99010.17;1777329;80;20991;-53
2021/03/08 02:00:33;;;;;;;23.70;15.75;;;;;;;2.30;70.13;99003.11;1689707;83;21197;-53
2021/03/08 02:03:01;;;;;;;22.27;13.98;;;;;;;2.31;70.22;99003.52;1692826;83;21579;-52
2021/03/08 02:05:39;;;;;;;23.75;14.70;;;;;;;2.31;70.23;99004.84;1775989;79;21546;-53
2021/03/08 02:08:08;;;;;;;20.80;14.75;;;;;;;2.32;70.22;98997.27;1688372;82;21217;-52
2021/03/08 02:10:37;;;;;;;20.20;13.60;;;;;;;2.34;70.23;99006.06;1687776;83;21217;-53
2021/03/08 02:13:25;;;;;;;18.20;13.13;;;;;;;2.33;70.25;98997.68;1687233;83;21142;-52
2021/03/08 02:16:21;;;;;;;23.22;13.72;;;;;;;2.32;70.32;98998.61;1776382;80;21126;-52
2021/03/08 02:19:13;;;;;;;20.05;13.85;;;;;;;2.32;70.38;98994.61;1776744;79;21491;-52
2021/03/08 02:22:29;;;;;;;24.80;15.43;;;;;;;2.38;70.46;98999.75;1802431;76;22940;-52
2021/03/08 02:25:41;;;;;;;21.23;14.75;;;;;;;2.30;70.55;98992.47;1758726;79;20978;-52
2021/03/08 02:28:49;;;;;;;21.40;14.98;;;;;;;2.30;70.54;99003.11;1760794;79;21933;-60
2021/03/08 02:31:18;;;;;;;22.73;14.05;;;;;;;2.27;70.71;99001.85;1762292;79;21024;-62
2021/03/08 02:33:56;;;;;;;22.65;13.58;;;;;;;2.27;70.71;99003.19;1759133;79;21604;-61
2021/03/08 02:36:28;;;;;;;22.85;14.63;;;;;;;2.27;70.74;98997.86;1759135;79;21005;-52
2021/03/08 02:39:01;;;;;;;22.05;14.78;;;;;;;2.26;70.85;98990.80;1759863;79;21505;-52
2021/03/08 02:41:29;;;;;;;23.38;15.43;;;;;;;2.26;70.92;99000.12;1731100;80;21237;-51
2021/03/08 02:44:04;;;;;;;21.17;14.15;;;;;;;2.26;70.91;99001.45;1709666;81;21033;-51
2021/03/08 02:46:36;;;;;;;23.18;14.70;;;;;;;2.26;70.98;99000.12;1698668;82;21017;-52
2021/03/08 02:49:07;;;;;;;24.07;16.65;;;;;;;2.26;71.01;98994.80;1708594;81;21545;-63
2021/03/08 02:51:41;;;;;;;20.52;15.15;;;;;;;2.26;71.06;98990.80;1759094;79;21148;-63
2021/03/08 02:54:09;;;;;;;25.48;14.83;;;;;;;2.25;71.12;98978.42;1759002;79;21530;-63
2021/03/08 02:56:37;;;;;;;22.07;14.98;;;;;;;2.24;71.13;98987.33;1763679;79;21185;-62
2021/03/08 02:59:06;;;;;;;23.90;15.20;;;;;;;2.23;71.21;98982.90;1752730;79;21142;-63
2021/03/08 03:01:35;;;;;;;24.30;14.68;;;;;;;2.23;71.24;98981.56;1750297;79;20954;-63
2021/03/08 03:04:03;;;;;;;24.72;14.85;;;;;;;2.22;71.25;98983.82;1761781;79;21049;-62
2021/03/08 03:06:33;;;;;;;26.87;15.90;;;;;;;2.21;71.44;98990.06;1751072;79;22336;-63
2021/03/08 03:09:07;;;;;;;27.32;15.65;;;;;;;2.20;71.46;98980.34;1732737;79;21530;-61
2021/03/08 03:11:38;;;;;;;21.27;14.73;;;;;;;2.20;71.68;98983.88;1758320;79;21023;-64
2021/03/08 03:14:06;;;;;;;23.80;16.67;;;;;;;2.22;72.19;98986.48;1759826;79;20989;-63
2021/03/08 03:16:34;;;;;;;22.00;15.35;;;;;;;2.21;72.44;98991.39;1758465;79;21151;-65
2021/03/08 03:19:02;;;;;;;22.80;15.35;;;;;;;2.18;73.29;98996.78;1758717;79;21209;-64
2021/03/08 03:21:33;;;;;;;24.00;15.28;;;;;;;2.13;73.85;99000.03;1762482;78;21005;-64
2021/03/08 03:24:01;;;;;;;23.40;15.38;;;;;;;2.06;74.43;98989.58;1762534;79;21132;-63
2021/03/08 03:26:31;;;;;;;25.90;17.27;;;;;;;2.00;75.26;98992.41;1765563;79;21008;-65
2021/03/08 03:28:59;;;;;;;26.33;17.60;;;;;;;1.96;75.65;98997.39;1760337;79;21049;-64
2021/03/08 03:31:29;;;;;;;25.90;16.65;;;;;;;1.92;75.93;98994.85;1751223;79;21671;-52
2021/03/08 03:33:57;;;;;;;24.70;16.77;;;;;;;1.89;76.11;98991.84;1757211;79;20993;-52
2021/03/08 03:36:28;;;;;;;24.30;15.60;;;;;;;1.87;76.26;98993.67;1758128;79;21167;-52
2021/03/08 03:38:57;;;;;;;25.00;15.13;;;;;;;1.91;76.49;98989.13;1731706;79;21096;-52
2021/03/08 03:41:25;;;;;;;23.20;16.80;;;;;;;1.87;76.91;98984.38;1761457;79;21140;-63
2021/03/08 03:43:53;;;;;;;22.05;16.62;;;;;;;1.84;77.08;99003.05;1758405;79;21371;-64
2021/03/08 03:46:21;;;;;;;28.52;17.37;;;;;;;1.81;77.60;98996.48;1756519;79;21866;-66
2021/03/08 03:48:50;;;;;;;23.73;16.42;;;;;;;1.77;77.77;98991.72;1766789;79;21145;-53
2021/03/08 03:51:18;;;;;;;26.48;16.27;;;;;;;1.78;77.87;98995.25;1761457;79;21115;-54
2021/03/08 03:53:47;;;;;;;23.25;16.82;;;;;;;1.78;78.48;98996.58;1763867;79;21578;-62
2021/03/08 03:56:15;;;;;;;26.15;16.45;;;;;;;1.73;78.63;98987.85;1765317;79;21207;-61
2021/03/08 03:58:54;;;;;;;24.57;15.43;;;;;;;1.72;78.94;98993.63;1759094;79;21174;-62
2021/03/08 04:01:24;;;;;;;25.75;16.77;;;;;;;1.74;79.01;98990.92;1761222;79;21210;-61
2021/03/08 04:04:17;;;;;;;24.35;16.97;;;;;;;1.75;79.12;98993.98;1761114;79;21100;-61
2021/03/08 04:06:49;;;;;;;29.40;16.05;;;;;;;1.73;79.17;98993.17;1759407;79;21529;-59
2021/03/08 04:09:18;;;;;;;23.90;16.05;;;;;;;1.74;79.07;98990.46;1726921;80;22199;-59
2021/03/08 04:11:46;;;;;;;28.00;17.52;;;;;;;1.76;79.08;98985.13;1761997;79;21577;-58
2021/03/08 04:14:19;;;;;;;24.55;16.07;;;;;;;1.75;79.12;98990.00;1760263;79;20986;-57
2021/03/08 04:16:50;;;;;;;27.45;17.02;;;;;;;1.74;79.28;98988.27;1759409;79;20966;-56
2021/03/08 04:19:21;;;;;;;26.42;17.27;;;;;;;1.73;79.50;98985.20;1760616;79;21155;-56
2021/03/08 04:21:49;;;;;;;25.48;16.35;;;;;;;1.71;79.93;98997.66;1756803;78;21369;-57
2021/03/08 04:24:17;;;;;;;30.52;18.25;;;;;;;1.67;80.61;98992.01;1757657;79;21084;-57
2021/03/08 04:26:45;;;;;;;31.70;19.60;;;;;;;1.63;80.96;98993.00;1758959;79;21195;-57
2021/03/08 04:29:13;;;;;;;28.83;17.02;;;;;;;1.62;81.40;98989.93;1759574;79;21152;-57
2021/03/08 04:31:41;;;;;;;27.05;17.35;;;;;;;1.55;83.06;98992.75;1757696;79;21114;-57
2021/03/08 04:34:09;;;;;;;27.75;16.60;;;;;;;1.46;84.20;98992.98;1748917;79;21161;-57
2021/03/08 04:36:37;;;;;;;28.60;17.98;;;;;;;1.38;85.11;98998.92;1762164;79;21128;-51
2021/03/08 04:39:05;;;;;;;29.77;18.48;;;;;;;1.29;86.02;98995.20;1758247;79;21212;-52
2021/03/08 04:41:33;;;;;;;26.25;18.12;;;;;;;1.23;86.28;99002.00;1757375;79;21112;-58
2021/03/08 04:44:02;;;;;;;30.00;18.65;;;;;;;1.19;86.65;99005.63;1757261;79;21161;-58
2021/03/08 04:46:30;;;;;;;26.48;16.82;;;;;;;1.19;86.96;98995.01;1757663;79;21387;-57
2021/03/08 04:48:59;;;;;;;28.70;16.60;;;;;;;1.19;87.09;98996.34;1758455;79;21158;-56
2021/03/08 04:51:28;;;;;;;25.30;16.73;;;;;;;1.21;87.25;98989.19;1759016;79;21102;-57
2021/03/08 04:53:56;;;;;;;24.12;16.95;;;;;;;1.23;87.21;99000.67;1765180;79;20993;-57
2021/03/08 04:56:26;;;;;;;29.23;17.60;;;;;;;1.24;87.14;98997.97;1759495;79;21124;-58
2021/03/08 04:58:55;;;;;;;24.50;16.90;;;;;;;1.26;87.24;98995.27;1749837;79;22253;-56
2021/03/08 05:01:23;;;;;;;25.50;17.55;;;;;;;1.28;87.25;98994.79;1763115;79;21033;-59
2021/03/08 05:03:51;;;;;;;26.95;16.85;;;;;;;1.30;87.19;98996.94;1752625;79;21135;-59
2021/03/08 05:06:20;;;;;;;26.70;17.45;;;;;;;1.30;87.13;99003.58;1760234;79;21538;-58
2021/03/08 05:08:48;;;;;;;27.45;17.37;;;;;;;1.32;86.99;99005.73;1763192;79;21699;-58
2021/03/08 05:11:16;;;;;;;26.27;16.77;;;;;;;1.33;86.67;99008.80;1755969;79;22023;-58
2021/03/08 05:13:48;;;;;;;26.00;17.12;;;;;;;1.37;86.53;99001.63;1762134;79;21664;-58
2021/03/08 05:16:17;;;;;;;26.02;16.62;;;;;;;1.41;86.23;99001.98;1734081;79;21205;-58
2021/03/08 05:18:46;;;;;;;24.57;16.25;;;;;;;1.41;85.78;99008.16;1758803;79;21144;-58
2021/03/08 05:21:14;;;;;;;22.13;15.55;;;;;;;1.42;85.52;99015.22;1761814;79;21538;-57
2021/03/08 05:23:43;;;;;;;23.47;16.15;;;;;;;1.43;85.28;99022.72;1711237;79;21203;-58
2021/03/08 05:26:11;;;;;;;25.85;15.45;;;;;;;1.46;84.87;99020.88;1755912;79;21659;-57
2021/03/08 05:28:38;;;;;;;27.32;16.20;;;;;;;1.46;84.87;99023.99;1754354;79;20950;-60
2021/03/08 05:31:06;;;;;;;24.90;16.85;;;;;;;1.45;85.12;99020.46;1754581;79;21096;-58
2021/03/08 05:33:35;;;;;;;24.52;15.40;;;;;;;1.46;85.15;99022.66;1753016;79;21175;-59
2021/03/08 05:36:03;;;;;;;22.35;15.83;;;;;;;1.44;85.23;99022.70;1757655;79;22173;-58
2021/03/08 05:38:32;;;;;;;28.00;16.95;;;;;;;1.43;85.49;99034.22;1761033;79;21140;-63
2021/03/08 05:41:33;;;;;;;25.10;16.32;;;;;;;1.41;85.63;99034.73;1756410;79;21550;-59
2021/03/08 05:44:04;;;;;;;22.17;14.75;;;;;;;1.40;85.90;99043.61;1759834;79;21406;-60
2021/03/08 05:46:40;;;;;;;20.55;13.10;;;;;;;1.36;86.39;99036.62;1754697;79;21162;-60
2021/03/08 05:49:47;;;;;;;18.00;11.50;;;;;;;1.33;86.07;99044.66;1755094;79;22343;-60
2021/03/08 05:52:35;;;;;;;15.15;9.85;;;;;;;1.27;85.48;99054.10;1755140;79;21017;-58
2021/03/08 05:55:41;;;;;;;11.23;8.83;;;;;;;1.23;83.48;99061.29;1847625;74;27432;-58
2021/03/08 05:58:49;;;;;;;8.45;7.00;;;;;;;1.18;81.55;99072.47;1822254;77;20977;-58
2021/03/08 06:01:52;;;;;;;9.88;6.15;;;;;;;1.12;79.35;99095.61;1822266;77;21200;-58
2021/03/08 06:04:43;;;;;;;7.60;4.70;;;;;;;1.09;78.78;99083.75;1820348;77;20962;-59
2021/03/08 06:08:00;;;;;;;6.90;4.65;;;;;;;1.03;77.04;99085.64;1822212;77;20981;-52
2021/03/08 06:10:36;;;;;;;8.08;4.97;;;;;;;1.02;75.75;99090.53;1812802;76;22722;-53
2021/03/08 06:13:09;;;;;;;8.15;4.47;;;;;;;0.95;75.27;99094.67;1791771;77;21557;-54
2021/03/08 06:15:38;;;;;;;6.65;3.80;;;;;;;0.92;75.14;99107.57;1794101;77;21471;-53
2021/03/08 06:18:07;;;;;;;4.78;3.25;;;;;;;0.91;73.98;99104.95;1791570;77;20974;-54
2021/03/08 06:20:36;;;;;;;6.80;3.10;;;;;;;0.89;72.73;99120.02;1788787;77;20970;-53
2021/03/08 06:23:04;;;;;;;4.00;2.67;;;;;;;0.84;71.72;99125.42;1790348;77;20973;-51
2021/03/08 06:25:32;;;;;;;4.90;2.55;;;;;;;0.83;71.72;99128.12;1787743;77;21009;-53
2021/03/08 06:28:00;;;;;;;3.65;2.77;;;;;;;0.79;71.82;99146.75;1789911;77;21193;-55
2021/03/08 06:30:28;;;;;;;4.83;2.50;;;;;;;0.75;71.82;99133.60;1788632;77;21009;-53
2021/03/08 06:32:56;;;;;;;4.35;2.50;;;;;;;0.69;71.45;99141.66;1791856;77;20970;-55
2021/03/08 06:35:24;;;;;;;6.25;2.35;;;;;;;0.65;70.85;99140.00;1788061;77;21108;-54
2021/03/08 06:37:52;;;;;;;4.60;2.30;;;;;;;0.64;70.97;99144.86;1788984;77;21112;-54
2021/03/08 06:40:22;;;;;;;5.60;2.92;;;;;;;0.61;69.91;99147.14;1790618;77;21588;-53
2021/03/08 06:42:51;;;;;;;6.75;1.98;;;;;;;0.60;69.38;99157.79;1794438;77;21037;-52
2021/03/08 06:45:24;;;;;;;5.33;2.40;;;;;;;0.59;68.94;99153.39;1792638;77;21028;-53
2021/03/08 06:47:55;;;;;;;3.95;1.72;;;;;;;0.60;69.31;99157.79;1789911;77;21498;-52
2021/03/08 06:50:23;;;;;;;6.05;2.55;;;;;;;0.64;69.32;99158.12;1792163;77;21092;-55
2021/03/08 06:52:51;;;;;;;3.80;2.50;;;;;;;0.64;68.71;99152.39;1790694;77;21368;-55
2021/03/08 06:55:22;;;;;;;3.65;1.92;;;;;;;0.64;68.31;99158.12;1794939;77;21195;-53
2021/03/08 06:57:50;;;;;;;2.65;1.60;;;;;;;0.64;67.56;99156.80;1791182;77;21123;-53
2021/03/08 07:00:19;;;;;;;2.55;1.90;;;;;;;0.64;67.67;99146.19;1794320;77;20998;-53
2021/03/08 07:02:47;;;;;;;3.83;1.90;;;;;;;0.67;68.13;99152.77;1758500;79;21120;-60
2021/03/08 07:05:26;;;;;;;2.77;1.85;;;;;;;0.67;68.17;99143.48;1789713;77;21377;-60
2021/03/08 07:07:58;;;;;;;3.15;2.15;;;;;;;0.70;68.17;99142.98;1797680;77;20974;-60
2021/03/08 07:10:38;;;;;;;3.98;1.87;;;;;;;0.74;68.08;99139.78;1781773;77;21625;-52
2021/03/08 07:13:08;;;;;;;2.20;1.90;;;;;;;0.72;67.11;99134.98;1783989;77;20977;-52
2021/03/08 07:15:55;;;;;;;3.08;1.67;;;;;;;0.70;66.83;99135.47;1781062;77;21152;-59
2021/03/08 07:18:23;;;;;;;3.80;2.30;;;;;;;0.71;66.23;99151.81;1780458;77;21329;-60
2021/03/08 07:21:18;;;;;;;5.00;2.35;;;;;;;0.70;66.46;99146.09;1781505;78;20970;-61
2021/03/08 07:23:48;;;;;;;4.37;2.40;;;;;;;0.74;66.79;99143.31;1779605;78;21122;-54
2021/03/08 07:26:19;;;;;;;3.80;2.10;;;;;;;0.80;66.94;99137.04;1780320;78;21552;-53
2021/03/08 07:29:14;;;;;;;5.53;2.35;;;;;;;0.92;67.16;99147.39;1820911;76;22688;-54
2021/03/08 07:31:45;;;;;;;5.37;2.33;;;;;;;0.92;67.16;99156.68;1728291;80;21660;-53
2021/03/08 07:34:15;;;;;;;2.25;2.00;;;;;;;0.94;67.07;99158.84;1735747;80;22277;-59
2021/03/08 07:36:58;;;;;;;4.42;1.90;;;;;;;0.97;66.68;99153.47;1782020;79;21390;-59
2021/03/08 07:39:26;;;;;;;3.08;1.80;;;;;;;0.96;66.50;99151.73;1781676;79;21021;-61
2021/03/08 07:42:04;;;;;;;3.70;1.85;;;;;;;0.97;66.30;99150.82;1783127;79;20958;-59
2021/03/08 07:44:32;;;;;;;4.70;1.80;;;;;;;1.00;65.67;99156.05;1753244;79;20989;-61
2021/03/08 07:47:19;;;;;;;5.45;2.10;;;;;;;0.99;65.40;99160.94;1748349;80;21372;-56
2021/03/08 07:49:47;;;;;;;3.95;2.80;;;;;;;1.00;65.72;99164.01;1748081;80;21075;-58
2021/03/08 07:52:19;;;;;;;5.30;1.82;;;;;;;1.00;65.04;99148.53;1746116;80;21617;-61
2021/03/08 07:54:58;;;;;;;4.12;2.37;;;;;;;0.98;64.90;99165.84;1746554;80;20993;-58
2021/03/08 07:57:27;;;;;;;4.53;1.50;;;;;;;0.94;62.46;99156.18;1747442;80;21247;-60
2021/03/08 07:59:56;;;;;;;4.83;1.72;;;;;;;0.91;60.78;99161.58;1731168;81;21383;-57
2021/03/08 08:02:24;;;;;;;5.70;1.95;;;;;;;0.86;60.08;99152.83;1780401;79;21000;-59
2021/03/08 08:04:54;;;;;;;2.77;1.55;;;;;;;0.86;61.05;99166.10;1744370;80;21671;-59
2021/03/08 08:07:22;;;;;;;2.95;1.50;;;;;;;0.87;60.88;99155.90;1684074;82;21222;-59
2021/03/08 08:09:50;;;;;;;2.98;1.30;;;;;;;0.91;60.08;99166.88;1746193;80;21122;-58
2021/03/08 08:12:22;;;;;;;2.98;1.80;;;;;;;0.92;59.97;99163.31;1730430;81;21643;-57
2021/03/08 08:14:51;;;;;;;2.85;1.98;;;;;;;0.90;59.22;99170.41;1782693;79;21596;-58
2021/03/08 08:17:21;;;;;;;3.33;2.12;;;;;;;0.91;59.08;99168.66;1749386;80;21151;-58
2021/03/08 08:19:49;;;;;;;3.80;2.05;;;;;;;0.92;59.35;99147.39;1749630;80;20976;-63
2021/03/08 08:22:23;;;;;;;2.40;1.60;;;;;;;0.94;59.23;99145.56;1730416;81;21106;-60
2021/03/08 08:24:59;;;;;;;2.62;2.00;;;;;;;1.07;58.55;99154.61;1808384;76;23233;-58
2021/03/08 08:27:27;;;;;;;3.67;1.70;;;;;;;1.09;58.45;99146.15;1760296;79;21002;-56
2021/03/08 08:30:01;;;;;;;4.05;1.82;;;;;;;1.18;57.73;99152.59;1755444;79;21349;-62
2021/03/08 08:32:59;;;;;;;3.65;2.10;;;;;;;1.29;56.98;99143.93;1750780;79;21010;-61
2021/03/08 08:35:32;;;;;;;3.33;1.60;;;;;;;1.40;57.07;99152.53;1750816;79;21017;-62
2021/03/08 08:38:20;;;;;;;6.83;2.10;;;;;;;1.56;56.64;99143.29;1754324;79;20919;-65
2021/03/08 08:40:45;;;;;;;2.22;1.70;;;;;;;1.61;56.67;99152.94;1756946;79;21085;-60
2021/03/08 08:43:18;;;;;;;2.42;2.05;;;;;;;1.65;56.81;99154.59;1752702;79;22246;-62
2021/03/08 08:45:49;;;;;;;1.90;1.60;;;;;;;1.67;56.68;99140.83;1754191;79;21629;-65
2021/03/08 08:48:18;;;;;;;3.37;2.35;;;;;;;1.68;55.25;99152.74;1755207;79;21061;-63
2021/03/08 08:50:52;;;;;;;2.85;1.42;;;;;;;1.64;55.03;99158.17;1756905;79;21198;-63
2021/03/08 08:53:40;;;;;;;1.85;1.12;;;;;;;1.57;53.34;99158.31;1753296;79;21574;-63
2021/03/08 08:56:09;;;;;;;2.65;1.40;;;;;;;1.54;52.67;99163.69;1754186;79;21917;-63
2021/03/08 08:58:49;;;;;;;2.05;1.40;;;;;;;1.51;52.29;99163.78;1751443;79;21685;-63
2021/03/08 09:03:59;;;;;;;2.83;1.80;;;;;;;1.54;51.94;99167.67;1811678;76;23248;-61
2021/03/08 09:06:48;;;;;;;3.83;1.52;;;;;;;1.50;51.05;99177.98;1776400;77;21456;-70
2021/03/08 09:09:22;;;;;;;3.33;1.50;;;;;;;1.47;50.22;99188.66;1750345;79;22278;-63
2021/03/08 09:12:01;;;;;;;2.02;1.45;;;;;;;1.45;49.56;99187.84;1752217;79;21142;-63
2021/03/08 09:14:37;;;;;;;4.22;1.47;;;;;;;1.43;48.64;99190.95;1751871;79;20985;-64
2021/03/08 09:17:28;;;;;;;3.67;1.35;;;;;;;1.44;49.09;99183.44;1754684;79;20997;-64
2021/03/08 09:20:02;;;;;;;1.42;1.22;;;;;;;1.50;49.40;99180.63;1752144;79;20989;-62
2021/03/08 09:22:31;;;;;;;2.47;1.60;;;;;;;1.61;48.11;99187.48;1750364;79;21517;-57
2021/03/08 09:25:03;;;;;;;2.77;1.40;;;;;;;1.67;48.00;99190.00;1754825;79;21033;-57
2021/03/08 09:28:07;;;;;;;1.92;1.20;;;;;;;1.80;47.12;99187.00;1830498;75;22599;-58
2021/03/08 09:30:46;;;;;;;2.10;1.20;;;;;;;1.76;47.22;99176.50;1820462;77;21377;-59
2021/03/08 09:33:16;;;;;;;1.98;1.20;;;;;;;1.80;47.72;99179.02;1822243;77;21536;-59
2021/03/08 09:35:54;;;;;;;3.87;1.52;;;;;;;1.97;47.43;99183.95;1819520;77;21129;-58
2021/03/08 09:38:23;;;;;;;2.33;1.02;;;;;;;2.09;46.93;99183.64;1822137;77;21096;-58
2021/03/08 09:40:55;;;;;;;2.17;1.20;;;;;;;2.09;45.62;99194.28;1823345;77;20965;-58
2021/03/08 09:43:32;;;;;;;2.65;1.30;;;;;;;2.02;44.79;99203.30;1822690;77;21720;-58
2021/03/08 09:46:07;;;;;;;4.83;1.50;;;;;;;1.98;44.37;99193.67;1823188;77;21359;-58
2021/03/08 09:48:52;;;;;;;2.17;1.20;;;;;;;2.00;44.79;99191.84;1809989;78;22763;-60
2021/03/08 09:51:21;;;;;;;1.85;1.00;;;;;;;1.89;44.00;99195.22;1786254;79;21270;-59
2021/03/08 09:53:52;;;;;;;1.30;1.00;;;;;;;1.82;44.68;99202.94;1726516;80;22277;-60
2021/03/08 09:56:21;;;;;;;1.20;1.10;;;;;;;1.77;44.61;99192.86;1752922;80;21168;-56
2021/03/08 09:59:03;;;;;;;4.70;1.45;;;;;;;1.74;45.15;99185.81;1723331;80;21023;-57
2021/03/08 10:01:32;;;;;;;2.60;1.40;;;;;;;1.81;44.95;99191.85;1751819;80;20994;-60
2021/03/08 10:04:00;;;;;;;2.87;1.47;;;;;;;1.95;44.12;99185.76;1722678;80;21023;-59
2021/03/08 10:06:33;;;;;;;3.30;1.40;;;;;;;2.07;43.24;99190.77;1722251;80;21387;-60
2021/03/08 10:09:22;;;;;;;1.87;1.40;;;;;;;2.16;42.89;99193.66;1752622;80;21030;-52
2021/03/08 10:12:01;;;;;;;1.98;1.20;;;;;;;2.34;42.96;99196.30;1803847;76;22329;-53
2021/03/08 10:14:29;;;;;;;2.83;1.67;;;;;;;2.32;42.49;99190.16;1773003;79;21517;-52
2021/03/08 10:17:08;;;;;;;4.37;1.20;;;;;;;2.29;42.35;99191.13;1774091;79;21366;-52
2021/03/08 10:19:38;;;;;;;2.05;1.20;;;;;;;2.27;42.42;99189.40;1771651;79;21030;-52
2021/03/08 10:22:06;;;;;;;2.17;1.40;;;;;;;2.33;42.11;99182.12;1771319;79;21063;-53
2021/03/08 10:24:37;;;;;;;2.52;1.50;;;;;;;2.39;40.97;99197.05;1771492;79;21029;-53
2021/03/08 10:27:10;;;;;;;1.82;1.40;;;;;;;2.36;40.15;99190.50;1769909;79;21534;-51
2021/03/08 10:29:40;;;;;;;2.95;1.10;;;;;;;2.36;40.58;99173.20;1769491;79;21381;-52
2021/03/08 10:32:16;;;;;;;2.77;1.00;;;;;;;2.46;40.57;99180.03;1786115;78;22699;-53
2021/03/08 10:34:44;;;;;;;3.65;1.42;;;;;;;2.50;40.52;99195.44;1753530;79;20962;-53
2021/03/08 10:37:17;;;;;;;1.72;1.22;;;;;;;2.56;41.05;99178.00;1754761;79;21911;-52
2021/03/08 10:39:45;;;;;;;1.30;1.20;;;;;;;2.61;41.22;99180.95;1762045;79;20954;-50
2021/03/08 10:42:13;;;;;;;1.65;1.10;;;;;;;2.66;40.72;99166.62;1758793;79;21002;-51
2021/03/08 10:44:41;;;;;;;3.37;1.50;;;;;;;2.61;40.29;99192.93;1752232;79;21115;-50
2021/03/08 10:47:14;;;;;;;3.15;1.45;;;;;;;2.50;40.46;99188.32;1715764;79;21120;-58
2021/03/08 10:49:52;;;;;;;2.80;1.55;;;;;;;2.43;40.95;99185.42;1758987;79;21195;-60
2021/03/08 10:52:21;;;;;;;2.35;1.67;;;;;;;2.38;40.15;99176.69;1751135;79;21002;-58
2021/03/08 10:54:49;;;;;;;6.67;3.02;;;;;;;2.37;41.15;99176.28;1755668;79;21405;-61
2021/03/08 10:57:20;;;;;;;2.72;1.65;;;;;;;2.41;41.35;99184.60;1752867;79;21124;-61
2021/03/08 10:59:49;;;;;;;1.80;1.50;;;;;;;2.44;40.86;99194.27;1753702;79;21676;-60
2021/03/08 11:02:18;;;;;;;2.50;1.55;;;;;;;2.40;39.88;99189.52;1757866;79;21383;-60
2021/03/08 11:04:51;;;;;;;1.77;1.60;;;;;;;2.36;40.35;99190.50;1759001;79;21002;-60
2021/03/08 11:07:30;;;;;;;3.20;1.62;;;;;;;2.34;41.01;99190.97;1750854;79;20954;-60
2021/03/08 11:09:58;;;;;;;2.15;1.50;;;;;;;2.33;41.49;99202.53;1759705;79;21121;-60
2021/03/08 11:12:26;;;;;;;1.85;1.37;;;;;;;2.29;42.55;99196.87;1759138;79;21172;-60
2021/03/08 11:14:56;;;;;;;1.85;1.20;;;;;;;2.21;43.93;99214.38;1761015;79;21389;-61
2021/03/08 11:17:41;;;;;;;3.25;1.65;;;;;;;2.12;43.12;99205.73;1756435;79;21142;-59
2021/03/08 11:20:15;;;;;;;2.22;1.80;;;;;;;2.06;44.11;99206.30;1751686;79;21631;-60
2021/03/08 11:22:53;;;;;;;2.25;1.37;;;;;;;1.97;45.04;99180.39;1751764;79;20982;-60
2021/03/08 11:25:34;;;;;;;1.72;1.27;;;;;;;1.96;44.60;99176.86;1750001;79;21624;-59
2021/03/08 11:28:06;;;;;;;1.67;1.07;;;;;;;1.98;44.08;99175.06;1758182;79;22324;-59
2021/03/08 11:30:34;;;;;;;2.58;1.47;;;;;;;2.05;43.27;99168.66;1752121;79;21550;-59
2021/03/08 11:33:08;;;;;;;2.50;1.60;;;;;;;2.14;42.79;99177.34;1744890;79;21014;-61
2021/03/08 11:35:36;;;;;;;2.55;1.42;;;;;;;2.19;42.41;99178.09;1738737;79;21599;-61
2021/03/08 11:38:13;;;;;;;3.72;1.67;;;;;;;2.26;42.34;99177.02;1743366;79;21112;-61
2021/03/08 11:40:46;;;;;;;2.85;1.50;;;;;;;2.31;42.18;99181.77;1738839;79;21357;-61
2021/03/08 11:43:16;;;;;;;4.10;2.20;;;;;;;2.36;41.93;99177.20;1741717;79;21416;-62
2021/03/08 11:45:44;;;;;;;3.12;1.90;;;;;;;2.38;42.19;99185.13;1739950;79;22003;-61
2021/03/08 11:48:12;;;;;;;3.42;1.85;;;;;;;2.39;42.23;99182.88;1740981;79;21149;-60
2021/03/08 11:50:40;;;;;;;3.92;1.77;;;;;;;2.37;41.77;99196.23;1741261;79;21105;-60
2021/03/08 11:53:10;;;;;;;3.27;1.40;;;;;;;2.34;42.70;99193.64;1745272;80;21249;-60
2021/03/08 11:55:38;;;;;;;9.45;2.20;;;;;;;2.26;42.99;99237.73;1742494;79;21252;-56
2021/03/08 11:58:06;;;;;;;2.62;1.80;;;;;;;2.17;43.86;99239.75;1744003;79;21018;-61
2021/03/08 12:00:35;;;;;;;3.70;1.85;;;;;;;2.05;45.20;99199.70;1741117;79;20979;-59
2021/03/08 12:03:04;;;;;;;4.65;1.60;;;;;;;1.99;45.94;99199.86;1744046;79;20955;-58
2021/03/08 12:05:32;;;;;;;3.00;1.50;;;;;;;1.97;46.78;99197.67;1743674;79;21534;-57